Latest Weather Observations for Larapuna (Eddystone Point)

IDT60801

Issued at 9:31 pm EST Thursday 24 September 2020 (issued every 10 minutes, with the page automatically refreshed every 10 minutes)

About weather observations | Map of weather stations | Latest weather observations for TAS | Other Formats
Station Details ID: 092045 Name: LARAPUNA (EDDYSTONE POINT) Lat: -40.99 Lon: 148.35 Height: 19.7 m
Data from the previous 72 hours. | See also: Recent months at Larapuna (Eddystone Point)
Date/Time
EST
Temp
°C
App
Temp
°C
Dew
Point
°C
Rel
Hum
%
Delta-T
°C
Wind Press
QNH
hPa
Press
MSL
hPa
Rain since
9am
mm
Dir  Spd
km/h
Gust
km/h
Spd
kts
Gust
kts
24/09:30pm 8.5 5.3 8.4 99 0.0 NW 15 19 8 10 1007.9 1007.9 0.0
24/09:00pm 8.8 5.2 8.4 97 0.2 NW 17 22 9 12 1008.0 1008.0 0.0
24/08:30pm 8.9 4.9 8.1 95 0.4 NW 19 24 10 13 1007.9 1007.9 0.0
24/08:00pm 8.8 6.2 7.9 94 0.4 NW 11 15 6 8 1007.9 1007.9 0.0
24/07:30pm 8.9 6.6 7.4 90 0.7 WNW 9 11 5 6 1007.7 1007.7 0.0
24/07:00pm 9.1 5.5 6.7 85 1.1 WNW 15 19 8 10 1007.4 1007.4 0.0
24/06:30pm 9.6 5.1 6.9 83 1.3 NW 20 26 11 14 1007.2 1007.2 0.0
24/06:00pm 9.9 4.6 6.6 80 1.5 WNW 24 32 13 17 1007.0 1007.0 0.0
24/05:30pm 10.2 4.9 6.9 80 1.6 WNW 24 35 13 19 1006.7 1006.7 0.0
24/05:00pm 10.7 3.9 7.0 78 1.8 WNW 32 44 17 24 1006.5 1006.5 0.0
24/04:30pm 11.1 4.1 7.0 76 2.0 NW 33 43 18 23 1006.3 1006.3 0.0
24/04:00pm 12.0 4.2 6.7 70 2.5 NW 37 50 20 27 1006.2 1006.2 0.0
24/03:30pm 12.4 4.3 6.9 69 2.6 WNW 39 52 21 28 1006.2 1006.2 0.0
24/03:00pm 12.4 5.6 7.5 72 2.4 NW 33 44 18 24 1006.2 1006.2 0.0
24/02:30pm 13.7 6.6 7.9 68 2.9 WNW 35 44 19 24 1006.3 1006.3 0.0
24/02:00pm 13.9 6.9 8.5 70 2.7 NW 35 48 19 26 1006.3 1006.3 0.0
24/01:30pm 14.5 7.8 8.0 65 3.2 WNW 33 46 18 25 1006.5 1006.5 0.0
24/01:00pm 13.3 6.6 7.3 67 2.9 NW 32 44 17 24 1006.7 1006.7 0.0
24/12:30pm 14.1 7.9 7.9 66 3.1 WNW 30 46 16 25 1006.8 1006.8 0.0
24/12:15pm 14.3 8.2 8.3 67 3.0 NW 30 50 16 27 1006.9 1006.9 0.0
24/12:00pm 14.6 9.1 9.0 69 2.9 WNW 28 37 15 20 1007.0 1007.0 0.0
24/11:30am 14.3 9.6 7.6 64 3.3 WNW 22 35 12 19 1007.4 1007.4 0.0
24/11:00am 14.2 10.9 9.6 74 2.4 E 17 20 9 11 1007.7 1007.7 0.0
24/10:30am 11.1 7.9 8.5 84 1.3 ESE 15 20 8 11 1008.1 1008.1 0.0
24/10:00am 11.6 9.0 9.2 85 1.2 SE 13 19 7 10 1008.2 1008.2 0.0
24/09:30am 13.3 9.8 10.1 81 1.7 SW 19 24 10 13 1008.3 1008.3 0.0
24/09:00am 11.3 7.3 8.2 81 1.5 WSW 19 24 10 13 1008.2 1008.2 1.6
24/08:30am 10.6 7.2 9.2 91 0.7 WSW 17 24 9 13 1008.2 1008.2 1.6
24/08:00am 9.2 6.9 9.1 99 0.0 W 11 17 6 9 1008.2 1008.2 1.6
24/07:30am 8.3 5.4 8.2 99 0.0 WNW 13 17 7 9 1008.1 1008.1 1.6
24/07:00am 7.4 3.9 7.4 100 0.0 NW 15 19 8 10 1007.8 1007.8 1.6
24/06:30am 8.6 7.1 8.6 100 0.0 NNW 6 15 3 8 1007.5 1007.5 1.6
24/06:00am 9.0 6.3 9.0 100 0.0 E 13 17 7 9 1007.2 1007.2 1.6
24/05:30am 9.1 6.8 9.1 100 0.0 E 11 15 6 8 1006.9 1006.9 1.6
24/05:00am 9.4 8.5 9.4 100 0.0 N 4 7 2 4 1006.9 1006.9 1.6
24/04:30am 9.7 7.6 9.7 100 0.0 W 11 17 6 9 1006.8 1006.8 1.6
24/04:00am 9.7 7.6 9.7 100 0.0 ESE 11 13 6 7 1006.5 1006.5 1.4
24/03:30am 10.0 8.0 10.0 100 0.0 ESE 11 17 6 9 1006.4 1006.4 1.4
24/03:00am 10.0 7.6 10.0 100 0.0 ESE 13 17 7 9 1006.4 1006.4 1.4
24/02:30am 9.8 6.9 9.8 100 0.0 S 15 17 8 9 1006.4 1006.4 1.4
24/02:00am 10.1 6.9 10.1 100 0.0 SSE 17 20 9 11 1006.5 1006.5 1.0
24/01:30am 10.4 8.1 10.4 100 0.0 SSE 13 17 7 9 1006.7 1006.7 0.8
24/01:00am 10.4 9.4 10.4 100 0.0 WNW 6 7 3 4 1006.9 1006.9 0.8
24/12:30am 10.5 9.0 10.5 100 0.0 NNW 9 11 5 6 1007.0 1007.0 0.4
24/12:00am 10.6 9.5 10.6 100 0.0 N 7 11 4 6 1006.9 1006.9 0.4
 
Date/Time
EST
Temp
°C
App
Temp
°C
Dew
Point
°C
Rel
Hum
%
Delta-T
°C
Wind Press
QNH
hPa
Press
MSL
hPa
Rain since
9am
mm
Dir  Spd
km/h
Gust
km/h
Spd
kts
Gust
kts
23/11:30pm 10.4 9.2 10.4 100 0.0 W 7 9 4 5 1006.9 1006.9 0.4
23/11:00pm 10.4 9.2 10.4 100 0.0 SSW 7 13 4 7 1006.9 1006.9 0.4
23/10:30pm 10.4 9.8 10.4 100 0.0 WSW 4 7 2 4 1006.8 1006.8 0.4
23/10:00pm 10.4 8.8 10.2 99 0.1 W 9 9 5 5 1006.9 1006.9 0.4
23/09:30pm 10.8 9.3 10.6 99 0.1 S 9 11 5 6 1006.5 1006.5 0.4
23/09:00pm 10.9 9.8 10.7 99 0.1 WNW 7 9 4 5 1006.3 1006.3 0.4
23/08:30pm 11.1 9.7 10.9 99 0.1 WSW 9 13 5 7 1006.1 1006.1 0.2
23/08:00pm 11.5 7.4 11.3 99 0.1 SSW 24 32 13 17 1005.7 1005.7 0.0
23/07:30pm 12.0 8.9 11.7 98 0.2 SSE 19 24 10 13 1005.3 1005.3 0.0
23/07:00pm 12.1 9.8 11.6 97 0.3 SSE 15 20 8 11 1004.9 1004.9 0.0
23/06:30pm 12.0 10.4 11.4 96 0.3 SE 11 17 6 9 1004.5 1004.5 0.0
23/06:00pm 12.4 8.3 11.3 93 0.6 SSE 24 30 13 16 1003.9 1003.9 0.0
23/05:30pm 13.0 8.8 11.2 89 0.9 WNW 24 30 13 16 1002.6 1002.6 0.0
23/05:00pm 13.1 9.8 11.7 91 0.7 W 20 30 11 16 1002.0 1002.0 0.0
23/04:30pm 14.0 7.0 11.2 83 1.5 WNW 39 50 21 27 1001.6 1001.6 0.0
23/04:00pm 14.5 7.2 11.5 82 1.6 WNW 41 54 22 29 1001.1 1001.1 0.0
23/03:30pm 13.0 6.5 11.7 92 0.7 WNW 37 50 20 27 1000.9 1000.9 0.0
23/03:00pm 15.0 8.2 10.6 75 2.3 WNW 37 50 20 27 1000.9 1000.9 0.0
23/02:30pm 15.6 9.3 11.0 74 2.5 WNW 35 54 19 29 1000.6 1000.6 0.0
23/02:00pm 15.8 9.3 11.6 76 2.3 WNW 37 57 20 31 1000.6 1000.6 0.0
23/01:32pm 15.5 8.1 11.3 76 2.3 WNW 41 59 22 32 1000.6 1000.6 0.0
23/01:30pm 15.6 7.9 11.4 76 2.3 WNW 43 59 23 32 1000.6 1000.6 0.0
23/01:19pm 15.3 8.6 10.9 75 2.3 WNW 37 57 20 31 1000.7 1000.7 0.0
23/01:00pm 15.6 8.7 11.6 77 2.2 WNW 39 52 21 28 1000.7 1000.7 0.0
23/12:30pm 15.8 9.2 11.4 75 2.4 WNW 37 52 20 28 1000.9 1000.9 0.0
23/12:00pm 15.2 8.1 11.0 76 2.2 WNW 39 59 21 32 1000.9 1000.9 0.0
23/11:31am 15.4 7.7 11.4 77 2.1 WNW 43 61 23 33 1000.7 1000.7 0.0
23/11:30am 15.2 7.3 11.4 78 2.0 WNW 44 61 24 33 1000.7 1000.7 0.0
23/11:08am 14.2 6.5 10.2 77 2.1 WNW 41 59 22 32 1000.7 1000.7 0.0
23/11:00am 14.0 5.9 10.2 78 2.0 WNW 43 56 23 30 1000.7 1000.7 0.0
23/10:30am 14.1 6.9 10.7 80 1.8 WNW 39 52 21 28 1000.9 1000.9 0.0
23/10:06am 13.5 7.0 10.3 81 1.7 WNW 35 54 19 29 1001.1 1001.1 0.0
23/10:00am 13.1 5.8 10.3 83 1.5 WNW 39 54 21 29 1001.1 1001.1 0.0
23/09:30am 12.7 5.7 9.9 83 1.4 WNW 37 56 20 30 1000.9 1000.9 0.0
23/09:18am 13.3 6.4 10.3 82 1.6 WNW 37 56 20 30 1000.9 1000.9 0.0
23/09:00am 12.9 5.6 10.3 84 1.4 WNW 39 52 21 28 1000.6 1000.6 1.8
23/08:30am 12.2 4.9 10.1 87 1.1 WNW 39 57 21 31 1000.6 1000.6 1.8
23/08:04am 11.7 4.3 9.8 88 1.0 WNW 39 57 21 31 1000.6 1000.6 1.8
23/08:00am 11.7 4.7 9.9 89 0.9 WNW 37 52 20 28 1000.4 1000.4 1.8
23/07:32am 11.0 4.7 9.8 92 0.6 WNW 33 52 18 28 1000.4 1000.4 1.8
23/07:30am 10.9 4.2 9.8 93 0.6 WNW 35 52 19 28 1000.4 1000.4 1.8
23/07:00am 10.3 3.5 9.4 94 0.5 WNW 35 56 19 30 1000.3 1000.3 1.8
23/06:58am 10.3 3.5 9.4 94 0.4 WNW 35 54 19 29 1000.4 1000.4 1.8
23/06:30am 9.8 5.1 9.2 96 0.3 WNW 24 37 13 20 1000.4 1000.4 1.8
23/06:00am 9.5 5.5 8.9 96 0.3 W 20 35 11 19 1000.3 1000.3 1.8
23/05:30am 9.8 2.2 8.9 94 0.4 WNW 39 59 21 32 999.5 999.5 1.8
23/05:09am 9.8 4.0 9.3 97 0.2 WNW 30 50 16 27 999.4 999.4 1.8
23/05:00am 9.8 3.6 9.3 97 0.2 WNW 32 41 17 22 999.4 999.4 1.8
23/04:30am 9.8 3.5 9.0 95 0.4 WNW 32 50 17 27 999.3 999.3 1.8
23/04:10am 9.8 4.0 9.5 98 0.1 WNW 30 48 16 26 999.3 999.3 1.8
23/04:00am 9.9 3.7 9.4 97 0.3 WNW 32 48 17 26 999.3 999.3 1.8
23/03:34am 10.2 3.1 9.6 96 0.3 WNW 37 56 20 30 999.4 999.4 1.8
23/03:30am 10.2 2.7 9.6 96 0.3 WNW 39 56 21 30 999.4 999.4 1.8
23/03:14am 10.4 3.4 9.9 97 0.3 WNW 37 56 20 30 999.5 999.5 1.8
23/03:00am 10.4 3.1 10.1 98 0.2 WNW 39 52 21 28 999.5 999.5 1.8
23/02:30am 10.5 2.5 10.3 99 0.1 WNW 43 63 23 34 999.2 999.2 1.8
23/02:00am 10.6 2.6 10.4 99 0.1 WNW 43 61 23 33 999.3 999.3 1.8
23/01:30am 10.8 4.0 10.6 99 0.1 WNW 37 59 20 32 999.7 999.7 1.6
23/01:00am 10.9 4.1 10.7 99 0.1 WNW 37 57 20 31 1000.0 1000.0 1.6
23/12:30am 10.8 4.0 10.6 99 0.1 WNW 37 57 20 31 1000.1 1000.1 1.6
23/12:00am 10.9 4.1 10.7 99 0.1 WNW 37 56 20 30 999.9 999.9 1.6
 
Date/Time
EST
Temp
°C
App
Temp
°C
Dew
Point
°C
Rel
Hum
%
Delta-T
°C
Wind Press
QNH
hPa
Press
MSL
hPa
Rain since
9am
mm
Dir  Spd
km/h
Gust
km/h
Spd
kts
Gust
kts
22/11:43pm 10.9 4.1 10.7 99 0.1 WNW 37 56 20 30 999.9 999.9 1.6
22/11:30pm 10.9 4.6 10.9 100 0.0 WNW 35 52 19 28 999.9 999.9 1.6
22/11:00pm 10.7 3.9 10.7 100 0.0 WNW 37 56 20 30 999.9 999.9 1.6
22/10:30pm 10.3 3.4 10.3 100 0.0 WNW 37 56 20 30 1000.1 1000.1 1.6
22/10:05pm 10.5 3.7 10.5 100 0.0 WNW 37 56 20 30 999.9 999.9 1.6
22/10:00pm 10.5 3.3 10.5 100 0.0 WNW 39 56 21 30 999.8 999.8 1.6
22/09:31pm 10.3 3.8 10.3 100 0.0 WNW 35 54 19 29 999.4 999.4 1.6
22/09:30pm 10.2 3.7 10.2 100 0.0 WNW 35 50 19 27 999.4 999.4 1.6
22/09:21pm 10.2 5.0 10.2 100 0.0 WNW 28 50 15 27 999.4 999.4 1.6
22/09:00pm 10.1 4.9 10.1 100 0.0 WNW 28 43 15 23 999.3 999.3 1.6
22/08:30pm 10.4 5.2 10.4 100 0.0 WNW 28 39 15 21 998.9 998.9 1.2
22/08:00pm 10.4 4.9 10.4 100 0.0 NW 30 41 16 22 998.8 998.8 1.2
22/07:30pm 10.8 4.4 10.8 100 0.0 NW 35 56 19 30 998.6 998.6 1.0
22/07:00pm 12.2 5.0 12.0 99 0.1 NW 41 59 22 32 998.5 998.5 0.0
22/06:30pm 12.8 5.1 12.0 95 0.4 NW 44 63 24 34 998.2 998.2 0.0
22/06:06pm 13.0 5.3 11.6 91 0.7 NW 43 61 23 33 998.4 998.4 0.0
22/06:00pm 13.0 5.2 11.2 89 1.0 NW 43 57 23 31 998.4 998.4 0.0
22/05:30pm 12.9 7.1 11.6 92 0.7 WNW 33 46 18 25 998.7 998.7 0.0
22/05:00pm 13.6 5.0 10.4 81 1.7 NW 46 69 25 37 998.9 998.9 0.0
22/04:30pm 14.3 4.5 10.1 76 2.2 NW 52 76 28 41 998.6 998.6 0.0
22/04:00pm 14.6 6.1 10.8 78 2.0 NW 46 65 25 35 998.8 998.8 0.0
22/03:30pm 13.9 5.5 11.1 83 1.5 NW 46 78 25 42 998.7 998.7 0.0
22/03:00pm 14.8 5.5 10.6 76 2.2 NW 50 72 27 39 999.0 999.0 0.0
22/02:30pm 14.6 4.8 10.2 75 2.3 NW 52 72 28 39 998.9 998.9 0.0
22/02:00pm 13.9 4.3 10.7 81 1.7 NW 52 74 28 40 999.0 999.0 0.0
22/01:30pm 14.4 4.6 10.2 76 2.2 NW 52 78 28 42 999.0 999.0 0.0
22/01:00pm 14.6 4.9 10.4 76 2.2 NW 52 72 28 39 999.0 999.0 0.0
22/12:30pm 14.9 5.6 10.5 75 2.3 NW 50 74 27 40 999.1 999.1 0.0
22/12:02pm 14.6 4.6 10.6 77 2.1 NW 54 72 29 39 999.1 999.1 0.0
22/12:00pm 14.5 4.5 10.7 78 2.0 NW 54 70 29 38 999.1 999.1 0.0
22/11:30am 14.8 4.1 10.4 75 2.3 NW 57 82 31 44 999.3 999.3 0.0
22/11:01am 14.8 4.2 10.8 77 2.1 NW 57 76 31 41 999.3 999.3 0.0
22/11:00am 14.5 3.4 10.1 75 2.3 NW 59 76 32 41 999.3 999.3 0.0
22/10:30am 14.9 5.3 10.9 77 2.1 NW 52 70 28 38 999.4 999.4 0.0
22/10:05am 14.2 4.5 10.4 78 2.0 NW 52 72 28 39 999.6 999.6 0.0
22/10:00am 14.5 5.2 10.7 78 2.0 NW 50 67 27 36 999.6 999.6 0.0
22/09:34am 14.5 5.6 10.7 78 2.0 NW 48 67 26 36 999.9 999.9 0.0
22/09:30am 14.6 5.3 10.6 77 2.1 NW 50 67 27 36 999.8 999.8 0.0
22/09:00am 14.7 5.8 10.5 76 2.2 NW 48 74 26 40 999.9 999.9 1.0
22/08:30am 14.4 7.5 11.6 83 1.5 NW 39 57 21 31 999.8 999.8 1.0
22/08:00am 14.1 6.3 11.1 82 1.6 NW 43 63 23 34 999.6 999.6 1.0
22/07:34am 13.8 6.3 11.0 83 1.5 NW 41 59 22 32 999.7 999.7 1.0
22/07:30am 13.7 6.6 11.0 84 1.4 NW 39 54 21 29 999.8 999.8 1.0
22/07:00am 12.9 7.8 11.8 93 0.6 NW 30 44 16 24 999.8 999.8 1.0
22/06:30am 12.4 7.4 12.1 98 0.2 NW 30 39 16 21 999.6 999.6 1.0
22/06:00am 12.4 7.0 12.1 98 0.2 NW 32 43 17 23 999.5 999.5 1.0
22/05:30am 12.2 7.5 12.0 99 0.1 NW 28 39 15 21 999.6 999.6 1.0
22/05:00am 12.2 7.1 12.0 99 0.1 NW 30 39 16 21 999.4 999.4 1.0
22/04:30am 12.3 7.5 11.8 97 0.3 NW 28 35 15 19 999.5 999.5 1.0
22/04:00am 12.5 7.1 12.2 98 0.2 NW 32 43 17 23 999.7 999.7 1.0
22/03:38am 12.6 7.2 12.3 98 0.2 NW 32 50 17 27 999.8 999.8 1.0
22/03:30am 12.6 7.6 12.3 98 0.2 NW 30 39 16 21 999.9 999.9 1.0
22/03:00am 12.3 7.3 12.1 99 0.1 NW 30 39 16 21 1000.0 1000.0 1.0
22/02:30am 11.7 8.1 11.7 100 0.0 NNW 22 30 12 16 1000.4 1000.4 1.0
22/02:00am 11.5 7.4 11.5 100 0.0 NNW 24 32 13 17 1000.8 1000.8 1.0
22/01:30am 12.3 6.3 12.1 99 0.1 NNW 35 43 19 23 1001.3 1001.3 1.0
22/01:00am 12.1 6.7 12.1 100 0.0 N 32 39 17 21 1001.8 1001.8 1.0
22/12:30am 11.9 6.4 11.9 100 0.0 N 32 41 17 22 1002.1 1002.1 1.0
22/12:00am 11.8 6.7 11.8 100 0.0 N 30 35 16 19 1002.3 1002.3 1.0
 
Date/Time
EST
Temp
°C
App
Temp
°C
Dew
Point
°C
Rel
Hum
%
Delta-T
°C
Wind Press
QNH
hPa
Press
MSL
hPa
Rain since
9am
mm
Dir  Spd
km/h
Gust
km/h
Spd
kts
Gust
kts
21/11:30pm 11.0 7.5 11.0 100 0.0 NNW 20 24 11 13 1002.6 1002.6 1.0
21/11:00pm 10.4 7.0 10.4 100 0.0 NNW 19 24 10 13 1002.7 1002.7 1.0
21/10:30pm 10.3 7.6 10.3 100 0.0 NNW 15 20 8 11 1002.7 1002.7 1.0
21/10:00pm 9.8 7.3 9.8 100 0.0 NNW 13 19 7 10 1002.8 1002.8 1.0

Other formats

Comma delimited format used in spreadsheet applications
http://www.bom.gov.au/fwo/IDT60801/IDT60801.94983.axf

JavaScript Object Notation format (JSON) in row-major order
http://www.bom.gov.au/fwo/IDT60801/IDT60801.94983.json

Data quality

Most of these data are generated automatically and are frequently updated. Quality checks on data are not normally performed. It is possible for incorrect values to appear. Refer to information at About Latest Weather Observations and please check the disclaimer before using these data.